KIAH

Houston Intercontinental

Airport
ICAO code
KIAH
Summary
ICAO Region
NAM
ICAO Territory
Location

Houston, Texas,

Elevation
97 ft
Coordinates
29° 59' 4" N , 95° 20' 29" W
KCC
Airport LOS
Parallel Runway Operation
Airport WX
Tropical Revolving Storm
Metar
Observation
KIAH 010753Z 00000KT 10SM CLR 14/09 A2998 RMK AO2 SLP150 T01390089
Station
Houston, Houston Intercontinental Airport
Date/Time
2022-10-01 07:53:00
Wind direction
Wind speed
00 kts
Lowest cloud amount
n/a
Temperature
13.9°C
Dew point
8.9°C
Humidity
71%
Weather condition
n/a

Description

International airport serving Houston Texas.

Climatology

Humid “subtropical” climate (Köppen climate classification Cfa) - characterized by hot, humid summers and cool winters. Significant amounts of precipitation occur in all seasons in most areas. Winter rainfall (and sometimes snowfall) is associated with large storms that the westerlies steer from west to east. Most summer rainfall occurs during thunderstorms and occasional tropical storms (hurricanes).

Airport map

Aerial View

SKYbrary Partners:

Safety knowledge contributed by: